sensor_id;sensor_type;location;lat;lon;timestamp;P1;durP1;ratioP1;P2;durP2;ratioP2
15151;SDS011;7676;50.900;6.234;2023-02-15T00:06:03;22.60;;;17.70;;
15151;SDS011;7676;50.900;6.234;2023-02-15T00:21:06;22.10;;;17.60;;
15151;SDS011;7676;50.900;6.234;2023-02-15T00:36:11;22.30;;;17.23;;
15151;SDS011;7676;50.900;6.234;2023-02-15T00:51:14;22.33;;;16.93;;
15151;SDS011;7676;50.900;6.234;2023-02-15T01:06:17;22.73;;;17.40;;
15151;SDS011;7676;50.900;6.234;2023-02-15T01:21:21;24.73;;;17.83;;
15151;SDS011;7676;50.900;6.234;2023-02-15T01:36:24;23.70;;;17.80;;
15151;SDS011;7676;50.900;6.234;2023-02-15T01:51:27;23.97;;;18.43;;
15151;SDS011;7676;50.900;6.234;2023-02-15T02:06:33;24.63;;;17.23;;
15151;SDS011;7676;50.900;6.234;2023-02-15T03:07:49;25.53;;;20.27;;
15151;SDS011;7676;50.900;6.234;2023-02-15T03:22:58;26.43;;;20.77;;
15151;SDS011;7676;50.900;6.234;2023-02-15T03:38:06;26.73;;;20.03;;
15151;SDS011;7676;50.900;6.234;2023-02-15T03:53:11;26.23;;;19.27;;
15151;SDS011;7676;50.900;6.234;2023-02-15T04:08:17;27.57;;;19.77;;
15151;SDS011;7676;50.900;6.234;2023-02-15T04:23:19;25.63;;;20.23;;
15151;SDS011;7676;50.900;6.234;2023-02-15T04:38:40;25.17;;;19.63;;
15151;SDS011;7676;50.900;6.234;2023-02-15T04:53:43;30.57;;;23.13;;
15151;SDS011;7676;50.900;6.234;2023-02-15T05:08:45;27.10;;;21.67;;
15151;SDS011;7676;50.900;6.234;2023-02-15T05:23:48;26.70;;;21.60;;
15151;SDS011;7676;50.900;6.234;2023-02-15T05:38:51;30.53;;;22.20;;
15151;SDS011;7676;50.900;6.234;2023-02-15T05:53:53;28.37;;;22.50;;
15151;SDS011;7676;50.900;6.234;2023-02-15T06:08:56;29.07;;;23.80;;
15151;SDS011;7676;50.900;6.234;2023-02-15T06:23:58;28.40;;;22.73;;
15151;SDS011;7676;50.900;6.234;2023-02-15T06:39:00;26.17;;;21.17;;
15151;SDS011;7676;50.900;6.234;2023-02-15T06:54:04;28.90;;;22.30;;
15151;SDS011;7676;50.900;6.234;2023-02-15T07:09:07;26.97;;;21.33;;
15151;SDS011;7676;50.900;6.234;2023-02-15T07:24:09;25.87;;;20.30;;
15151;SDS011;7676;50.900;6.234;2023-02-15T07:39:11;26.40;;;21.03;;
15151;SDS011;7676;50.900;6.234;2023-02-15T07:54:14;23.27;;;19.67;;
15151;SDS011;7676;50.900;6.234;2023-02-15T08:09:16;25.63;;;19.90;;
15151;SDS011;7676;50.900;6.234;2023-02-15T08:24:20;26.67;;;21.40;;
15151;SDS011;7676;50.900;6.234;2023-02-15T08:39:23;31.47;;;25.03;;
15151;SDS011;7676;50.900;6.234;2023-02-15T08:54:26;28.93;;;21.73;;
15151;SDS011;7676;50.900;6.234;2023-02-15T09:09:28;30.50;;;24.90;;
15151;SDS011;7676;50.900;6.234;2023-02-15T09:24:33;27.97;;;23.70;;
15151;SDS011;7676;50.900;6.234;2023-02-15T09:39:37;26.53;;;20.87;;
15151;SDS011;7676;50.900;6.234;2023-02-15T10:25:35;24.67;;;20.83;;
15151;SDS011;7676;50.900;6.234;2023-02-15T10:40:59;29.07;;;21.93;;
15151;SDS011;7676;50.900;6.234;2023-02-15T11:11:38;25.50;;;19.33;;
15151;SDS011;7676;50.900;6.234;2023-02-15T11:26:45;26.03;;;18.33;;
15151;SDS011;7676;50.900;6.234;2023-02-15T11:42:10;29.30;;;20.30;;
15151;SDS011;7676;50.900;6.234;2023-02-15T11:57:22;26.57;;;19.30;;
15151;SDS011;7676;50.900;6.234;2023-02-15T12:12:26;23.20;;;17.70;;
15151;SDS011;7676;50.900;6.234;2023-02-15T12:27:34;24.63;;;16.27;;
15151;SDS011;7676;50.900;6.234;2023-02-15T12:42:41;19.77;;;15.77;;
15151;SDS011;7676;50.900;6.234;2023-02-15T12:57:46;22.60;;;14.67;;
15151;SDS011;7676;50.900;6.234;2023-02-15T13:12:49;21.53;;;16.10;;
15151;SDS011;7676;50.900;6.234;2023-02-15T13:27:57;20.13;;;15.13;;
15151;SDS011;7676;50.900;6.234;2023-02-15T13:43:19;20.23;;;15.40;;
15151;SDS011;7676;50.900;6.234;2023-02-15T13:58:33;20.60;;;14.63;;
15151;SDS011;7676;50.900;6.234;2023-02-15T14:29:41;19.53;;;15.10;;
15151;SDS011;7676;50.900;6.234;2023-02-15T15:00:28;18.00;;;14.20;;
15151;SDS011;7676;50.900;6.234;2023-02-15T15:15:46;18.80;;;14.07;;
15151;SDS011;7676;50.900;6.234;2023-02-15T15:30:49;19.97;;;15.07;;
15151;SDS011;7676;50.900;6.234;2023-02-15T16:01:10;17.30;;;13.10;;
15151;SDS011;7676;50.900;6.234;2023-02-15T16:16:20;19.00;;;13.40;;
15151;SDS011;7676;50.900;6.234;2023-02-15T16:31:26;17.33;;;13.60;;
15151;SDS011;7676;50.900;6.234;2023-02-15T16:46:32;17.60;;;13.93;;
15151;SDS011;7676;50.900;6.234;2023-02-15T17:01:42;22.33;;;16.37;;
15151;SDS011;7676;50.900;6.234;2023-02-15T17:16:47;28.30;;;19.47;;
15151;SDS011;7676;50.900;6.234;2023-02-15T17:32:21;31.40;;;19.67;;
15151;SDS011;7676;50.900;6.234;2023-02-15T17:47:27;28.90;;;19.00;;
15151;SDS011;7676;50.900;6.234;2023-02-15T18:02:31;32.57;;;22.57;;
15151;SDS011;7676;50.900;6.234;2023-02-15T18:17:55;25.87;;;19.73;;
15151;SDS011;7676;50.900;6.234;2023-02-15T18:32:58;31.43;;;23.70;;
15151;SDS011;7676;50.900;6.234;2023-02-15T18:48:01;26.57;;;19.67;;
15151;SDS011;7676;50.900;6.234;2023-02-15T19:03:04;27.77;;;20.60;;
15151;SDS011;7676;50.900;6.234;2023-02-15T19:18:07;30.67;;;20.10;;
15151;SDS011;7676;50.900;6.234;2023-02-15T19:33:14;26.57;;;19.97;;
15151;SDS011;7676;50.900;6.234;2023-02-15T19:48:18;27.03;;;19.60;;
15151;SDS011;7676;50.900;6.234;2023-02-15T20:03:21;24.80;;;18.67;;
15151;SDS011;7676;50.900;6.234;2023-02-15T20:18:23;23.93;;;18.57;;
15151;SDS011;7676;50.900;6.234;2023-02-15T20:33:26;24.47;;;18.33;;
15151;SDS011;7676;50.900;6.234;2023-02-15T20:48:28;25.27;;;19.20;;
15151;SDS011;7676;50.900;6.234;2023-02-15T21:03:32;28.27;;;21.10;;
15151;SDS011;7676;50.900;6.234;2023-02-15T21:18:35;25.50;;;20.10;;
15151;SDS011;7676;50.900;6.234;2023-02-15T21:33:39;24.57;;;18.93;;
15151;SDS011;7676;50.900;6.234;2023-02-15T21:48:45;27.37;;;19.43;;
15151;SDS011;7676;50.900;6.234;2023-02-15T22:03:47;21.03;;;17.67;;
15151;SDS011;7676;50.900;6.234;2023-02-15T22:18:50;19.97;;;16.57;;
15151;SDS011;7676;50.900;6.234;2023-02-15T22:33:53;22.63;;;17.63;;
15151;SDS011;7676;50.900;6.234;2023-02-15T22:48:56;20.37;;;15.07;;
15151;SDS011;7676;50.900;6.234;2023-02-15T23:03:58;20.63;;;15.50;;
15151;SDS011;7676;50.900;6.234;2023-02-15T23:19:04;21.13;;;15.53;;
15151;SDS011;7676;50.900;6.234;2023-02-15T23:34:14;17.30;;;13.90;;
15151;SDS011;7676;50.900;6.234;2023-02-15T23:49:22;19.93;;;15.57;;
